Time;durP1;ratioP1;P1;durP2;ratioP2;P2;SDS_P1;SDS_P2;PMS_P1;PMS_P2;Temp;Humidity;BMP_temperature;BMP_pressure;BME280_temperature;BME280_humidity;BME280_pressure;Samples;Min_cycle;Max_cycle;Signal;HPM_P1;HPM_P2
2022/01/17 00:02:22;;;;;;;0.30;0.30;;;3.40;90.30;;;;;;5053506;28;20205;-69
2022/01/17 00:04:48;;;;;;;0.30;0.30;;;3.40;90.50;;;;;;5053642;28;20652;-69
2022/01/17 00:07:14;;;;;;;0.30;0.30;;;3.30;90.80;;;;;;5053421;28;20195;-69
2022/01/17 00:09:40;;;;;;;0.32;0.32;;;3.30;91.00;;;;;;5053655;28;20179;-69
2022/01/17 00:12:06;;;;;;;0.30;0.30;;;3.20;91.30;;;;;;5053686;28;20183;-69
2022/01/17 00:14:38;;;;;;;0.30;0.30;;;3.30;91.70;;;;;;5053564;28;20175;-69
2022/01/17 00:17:23;;;;;;;0.30;0.30;;;3.30;91.80;;;;;;5053297;28;20328;-69
2022/01/17 00:19:53;;;;;;;0.38;0.38;;;3.30;91.90;;;;;;5053476;28;20182;-69
2022/01/17 00:22:20;;;;;;;0.30;0.30;;;3.30;92.20;;;;;;5052866;28;20257;-69
2022/01/17 00:24:47;;;;;;;0.30;0.30;;;3.30;92.30;;;;;;5053905;28;20169;-69
2022/01/17 00:27:13;;;;;;;0.32;0.32;;;3.20;92.40;;;;;;5053082;28;20289;-68
2022/01/17 00:29:39;;;;;;;0.30;0.30;;;3.20;92.60;;;;;;5053266;28;20221;-69
2022/01/17 00:32:05;;;;;;;0.30;0.30;;;3.20;92.80;;;;;;5053274;28;20176;-69
2022/01/17 00:34:30;;;;;;;0.87;0.87;;;3.20;92.90;;;;;;5053371;28;20395;-69
2022/01/17 00:36:56;;;;;;;0.30;0.30;;;3.20;92.90;;;;;;5053163;28;20426;-69
2022/01/17 00:39:22;;;;;;;0.30;0.30;;;3.30;93.10;;;;;;5053210;28;20223;-69
2022/01/17 00:41:48;;;;;;;0.30;0.30;;;3.30;93.20;;;;;;5053280;28;20245;-68
2022/01/17 00:44:16;;;;;;;0.30;0.30;;;3.30;93.20;;;;;;5053190;28;20641;-69
2022/01/17 00:46:41;;;;;;;0.40;0.40;;;3.30;93.20;;;;;;5053149;28;20521;-69
2022/01/17 00:49:07;;;;;;;0.40;0.40;;;3.20;93.40;;;;;;5053121;28;20175;-69
2022/01/17 00:51:33;;;;;;;0.40;0.40;;;3.20;93.50;;;;;;5053253;28;20178;-68
2022/01/17 00:53:59;;;;;;;0.40;0.40;;;3.30;93.70;;;;;;5053262;28;20438;-69
2022/01/17 00:56:24;;;;;;;0.30;0.30;;;3.20;93.80;;;;;;5052884;28;20175;-69
2022/01/17 00:58:50;;;;;;;0.30;0.30;;;3.20;94.10;;;;;;5052878;28;20199;-69
2022/01/17 01:01:16;;;;;;;0.98;0.98;;;3.20;94.10;;;;;;5053298;28;20168;-69
2022/01/17 01:03:43;;;;;;;0.30;0.30;;;3.30;94.10;;;;;;5052966;28;20702;-69
2022/01/17 01:06:09;;;;;;;0.32;0.32;;;3.30;94.20;;;;;;5053103;28;20168;-69
2022/01/17 01:08:35;;;;;;;2.70;1.43;;;3.30;94.20;;;;;;5052941;28;20551;-68
2022/01/17 01:11:00;;;;;;;0.30;0.30;;;3.30;94.20;;;;;;5053091;28;20406;-69
2022/01/17 01:13:29;;;;;;;0.30;0.30;;;3.30;94.10;;;;;;5052922;28;20414;-69
2022/01/17 01:29:14;;;;;;;0.30;0.30;;;3.20;94.50;;;;;;5053080;28;20252;-69
2022/01/17 01:31:46;;;;;;;0.73;0.73;;;3.20;94.60;;;;;;5052979;28;20194;-69
2022/01/17 01:34:13;;;;;;;0.40;0.40;;;3.30;94.60;;;;;;5056596;28;20178;-69
2022/01/17 01:36:39;;;;;;;0.30;0.30;;;3.40;94.60;;;;;;5056300;28;20172;-69
2022/01/17 01:39:06;;;;;;;0.30;0.30;;;3.40;94.40;;;;;;5056481;28;20626;-68
2022/01/17 01:41:43;;;;;;;0.30;0.30;;;3.30;94.50;;;;;;5056438;28;20211;-68
2022/01/17 01:44:13;;;;;;;0.40;0.40;;;3.30;94.60;;;;;;5055090;28;20171;-69
2022/01/17 01:46:40;;;;;;;0.30;0.30;;;3.40;94.80;;;;;;5055970;28;20311;-69
2022/01/17 01:49:06;;;;;;;0.30;0.30;;;3.40;94.70;;;;;;5056149;28;20177;-69
2022/01/17 01:51:32;;;;;;;0.40;0.40;;;3.40;94.80;;;;;;5056195;28;20218;-69
2022/01/17 01:53:58;;;;;;;0.70;0.70;;;3.50;94.90;;;;;;5056171;28;20179;-69
2022/01/17 01:56:23;;;;;;;0.30;0.30;;;3.40;94.70;;;;;;5055966;28;20183;-69
2022/01/17 01:58:49;;;;;;;0.30;0.30;;;3.30;94.80;;;;;;5055719;28;20196;-70
2022/01/17 02:01:15;;;;;;;0.40;0.40;;;3.30;95.00;;;;;;5056162;28;20176;-69
2022/01/17 02:03:40;;;;;;;0.90;0.90;;;3.40;95.10;;;;;;5055831;28;20204;-69
2022/01/17 02:06:06;;;;;;;0.30;0.30;;;3.40;95.00;;;;;;5055682;28;20203;-69
2022/01/17 02:08:32;;;;;;;0.63;0.63;;;3.40;95.00;;;;;;5055840;28;20668;-68
2022/01/17 02:10:58;;;;;;;0.30;0.30;;;3.30;95.10;;;;;;5055908;28;20226;-68
2022/01/17 02:13:25;;;;;;;0.40;0.40;;;3.30;95.30;;;;;;5055815;28;20402;-69
2022/01/17 02:16:02;;;;;;;0.40;0.40;;;3.30;95.60;;;;;;5055680;28;20179;-68
2022/01/17 02:18:30;;;;;;;0.30;0.30;;;3.10;95.60;;;;;;5055618;28;20388;-69
2022/01/17 02:21:11;;;;;;;1.08;1.08;;;3.10;95.90;;;;;;5055435;28;20190;-68
2022/01/17 02:23:38;;;;;;;0.30;0.30;;;3.20;96.00;;;;;;5055676;28;20202;-69
2022/01/17 02:26:04;;;;;;;0.40;0.40;;;3.20;95.80;;;;;;5055216;28;20175;-69
2022/01/17 02:28:33;;;;;;;0.30;0.30;;;3.20;95.90;;;;;;5055325;28;20270;-69
2022/01/17 02:31:00;;;;;;;0.30;0.30;;;3.20;96.00;;;;;;5055401;28;20667;-69
2022/01/17 02:33:26;;;;;;;1.95;1.70;;;3.10;95.90;;;;;;5055414;28;20176;-69
2022/01/17 02:35:51;;;;;;;0.40;0.40;;;3.10;96.00;;;;;;5055164;28;20182;-69
2022/01/17 02:38:17;;;;;;;0.30;0.30;;;3.10;96.00;;;;;;5055176;28;20291;-69
2022/01/17 02:40:42;;;;;;;0.30;0.30;;;3.10;96.00;;;;;;5055141;28;20614;-68
2022/01/17 02:43:08;;;;;;;0.40;0.40;;;3.10;96.00;;;;;;5055191;28;20206;-69
2022/01/17 02:48:26;;;;;;;0.40;0.40;;;3.10;96.10;;;;;;5063465;28;20783;-69
2022/01/17 02:50:52;;;;;;;0.30;0.30;;;3.10;96.10;;;;;;5055139;28;20167;-69
2022/01/17 02:53:18;;;;;;;0.30;0.30;;;3.10;96.10;;;;;;5055151;28;20582;-68
2022/01/17 02:55:48;;;;;;;0.30;0.30;;;3.10;96.10;;;;;;5054870;28;20693;-69
2022/01/17 02:58:14;;;;;;;0.32;0.32;;;3.20;96.00;;;;;;5054862;28;20223;-69
2022/01/17 03:00:40;;;;;;;0.30;0.30;;;3.10;95.60;;;;;;5054901;28;20184;-68
2022/01/17 03:03:09;;;;;;;0.30;0.30;;;3.10;95.60;;;;;;5054945;28;20225;-69
2022/01/17 03:05:35;;;;;;;0.30;0.30;;;3.00;95.70;;;;;;5054629;28;20171;-69
2022/01/17 03:08:03;;;;;;;0.30;0.30;;;3.00;95.80;;;;;;5054487;28;20191;-69
2022/01/17 03:10:43;;;;;;;0.30;0.30;;;3.00;95.90;;;;;;5054502;28;20186;-68
2022/01/17 03:13:13;;;;;;;0.40;0.40;;;3.10;96.00;;;;;;5054700;28;20176;-69
2022/01/17 03:15:40;;;;;;;0.30;0.30;;;3.10;95.90;;;;;;5054457;28;20171;-69
2022/01/17 03:18:06;;;;;;;0.30;0.30;;;3.10;95.90;;;;;;5054402;28;20211;-69
2022/01/17 03:20:34;;;;;;;0.30;0.30;;;3.10;95.80;;;;;;5054414;28;20187;-69
2022/01/17 03:23:00;;;;;;;0.30;0.30;;;3.20;95.80;;;;;;5054321;28;20258;-69
2022/01/17 03:25:27;;;;;;;0.40;0.40;;;3.30;95.90;;;;;;5054069;28;20247;-69
2022/01/17 03:27:53;;;;;;;0.30;0.30;;;3.30;95.60;;;;;;5054227;28;20592;-69
2022/01/17 03:30:19;;;;;;;0.30;0.30;;;3.30;95.60;;;;;;5054250;28;20174;-68
2022/01/17 03:32:45;;;;;;;0.40;0.40;;;3.40;95.60;;;;;;5054321;28;20259;-69
2022/01/17 03:35:11;;;;;;;0.30;0.30;;;3.40;95.50;;;;;;5054124;28;20260;-68
2022/01/17 03:37:37;;;;;;;0.35;0.35;;;3.40;95.50;;;;;;5053848;28;20197;-69
2022/01/17 03:40:04;;;;;;;0.30;0.30;;;3.40;95.40;;;;;;5054247;28;20172;-68
2022/01/17 03:42:30;;;;;;;0.30;0.30;;;3.50;95.40;;;;;;5054006;28;20451;-69
2022/01/17 03:44:56;;;;;;;0.30;0.30;;;3.50;95.40;;;;;;5054156;28;20175;-68
2022/01/17 03:47:21;;;;;;;0.30;0.30;;;3.50;95.30;;;;;;5053766;28;20807;-69
2022/01/17 03:49:47;;;;;;;1.70;1.13;;;3.40;95.30;;;;;;5053879;28;20634;-69
2022/01/17 03:52:13;;;;;;;0.30;0.30;;;3.50;95.50;;;;;;5053881;28;20175;-69
2022/01/17 03:54:39;;;;;;;0.37;0.37;;;3.50;95.40;;;;;;5053844;28;20168;-69
2022/01/17 03:57:04;;;;;;;0.30;0.30;;;3.40;95.20;;;;;;5052543;28;20189;-69
2022/01/17 03:59:30;;;;;;;0.40;0.40;;;3.40;95.30;;;;;;5053682;28;20427;-69
2022/01/17 04:01:56;;;;;;;0.30;0.30;;;3.40;95.40;;;;;;5053703;28;20176;-68
2022/01/17 04:04:22;;;;;;;0.30;0.30;;;3.40;95.50;;;;;;5053659;28;20734;-68
2022/01/17 04:06:47;;;;;;;0.30;0.30;;;3.40;95.50;;;;;;5053289;28;20437;-69
2022/01/17 04:09:13;;;;;;;0.30;0.30;;;3.50;95.50;;;;;;5053685;28;20179;-69
2022/01/17 04:11:39;;;;;;;0.40;0.40;;;3.50;95.50;;;;;;5053636;28;20200;-69
2022/01/17 04:14:09;;;;;;;0.30;0.30;;;3.50;95.40;;;;;;5053658;28;20182;-69
2022/01/17 04:16:35;;;;;;;0.40;0.40;;;3.50;95.40;;;;;;5053578;28;20167;-69
2022/01/17 04:19:01;;;;;;;0.30;0.30;;;3.50;95.40;;;;;;5053630;28;20263;-69
2022/01/17 04:21:32;;;;;;;1.17;1.17;;;3.50;95.40;;;;;;5053397;28;20173;-69
2022/01/17 04:23:58;;;;;;;0.30;0.30;;;3.40;95.40;;;;;;5053407;28;20206;-69
2022/01/17 04:26:24;;;;;;;0.30;0.30;;;3.40;95.50;;;;;;5053274;28;20175;-69
2022/01/17 04:28:49;;;;;;;0.30;0.30;;;3.50;95.70;;;;;;5053186;28;20191;-69
2022/01/17 04:31:15;;;;;;;0.30;0.30;;;3.60;95.60;;;;;;5053307;28;20403;-69
2022/01/17 04:33:41;;;;;;;0.30;0.30;;;3.50;95.30;;;;;;5053592;28;20561;-69
2022/01/17 04:36:10;;;;;;;0.40;0.40;;;3.40;95.20;;;;;;5053063;28;20176;-69
2022/01/17 04:38:36;;;;;;;0.80;0.80;;;3.40;95.40;;;;;;5053122;28;20438;-69
2022/01/17 04:41:11;;;;;;;0.30;0.30;;;3.50;95.40;;;;;;5053232;28;20724;-69
2022/01/17 04:46:04;;;;;;;0.40;0.40;;;3.60;95.30;;;;;;5053226;28;20174;-69
2022/01/17 04:48:30;;;;;;;0.30;0.30;;;3.60;95.30;;;;;;5053208;28;20429;-69
2022/01/17 04:50:56;;;;;;;0.55;0.55;;;3.60;95.30;;;;;;5053174;28;20172;-69
2022/01/17 04:53:22;;;;;;;0.30;0.30;;;3.60;95.40;;;;;;5053192;28;20647;-68
2022/01/17 04:55:49;;;;;;;0.40;0.40;;;3.60;95.40;;;;;;5053473;28;20188;-69
2022/01/17 04:58:15;;;;;;;0.40;0.40;;;3.70;95.60;;;;;;5052994;28;20431;-69
2022/01/17 05:00:46;;;;;;;0.30;0.30;;;3.70;95.40;;;;;;5052972;28;20203;-69
2022/01/17 05:03:20;;;;;;;0.30;0.30;;;3.70;95.20;;;;;;5053174;28;20200;-69
2022/01/17 05:05:46;;;;;;;0.40;0.40;;;3.70;95.10;;;;;;5052853;28;20172;-69
2022/01/17 05:08:13;;;;;;;0.30;0.30;;;3.70;95.10;;;;;;5055606;28;20187;-69
2022/01/17 05:10:38;;;;;;;0.40;0.40;;;3.70;95.10;;;;;;5056826;28;20174;-69
2022/01/17 05:13:05;;;;;;;0.40;0.40;;;3.60;95.10;;;;;;5056861;28;20266;-69
2022/01/17 05:20:23;;;;;;;0.40;0.40;;;3.70;95.20;;;;;;5056895;28;20525;-69
2022/01/17 05:22:49;;;;;;;0.40;0.40;;;3.70;95.30;;;;;;5056800;28;20205;-68
2022/01/17 05:25:15;;;;;;;0.40;0.40;;;3.80;95.30;;;;;;5056768;28;20396;-69
2022/01/17 05:27:40;;;;;;;0.40;0.40;;;3.80;95.30;;;;;;5056243;28;20518;-69
2022/01/17 05:30:14;;;;;;;0.30;0.30;;;3.70;95.30;;;;;;5056573;28;20401;-69
2022/01/17 05:32:40;;;;;;;0.40;0.40;;;3.60;95.40;;;;;;5056735;28;20578;-69
2022/01/17 05:35:06;;;;;;;0.30;0.30;;;3.60;95.60;;;;;;5056560;28;20176;-68
2022/01/17 05:37:32;;;;;;;0.30;0.30;;;3.70;95.70;;;;;;5056350;28;20204;-69
2022/01/17 05:39:57;;;;;;;0.40;0.40;;;3.70;95.70;;;;;;5056571;28;20182;-69
2022/01/17 05:42:24;;;;;;;0.70;0.70;;;3.70;95.40;;;;;;5056293;28;20398;-69
2022/01/17 05:44:51;;;;;;;0.30;0.30;;;3.80;95.30;;;;;;5056315;28;20165;-69
2022/01/17 05:47:17;;;;;;;0.40;0.40;;;3.80;95.10;;;;;;5056160;28;20551;-69
2022/01/17 05:49:43;;;;;;;0.30;0.30;;;3.70;95.10;;;;;;5056254;28;20176;-69
2022/01/17 05:52:09;;;;;;;0.30;0.30;;;3.80;95.10;;;;;;5056267;28;20490;-69
2022/01/17 05:54:35;;;;;;;0.30;0.30;;;3.80;95.10;;;;;;5054787;28;20662;-69
2022/01/17 05:57:01;;;;;;;0.30;0.30;;;3.80;95.20;;;;;;5055808;28;20254;-69
2022/01/17 05:59:27;;;;;;;0.30;0.30;;;3.80;95.10;;;;;;5055796;28;20184;-69
2022/01/17 06:01:53;;;;;;;0.50;0.50;;;3.80;95.00;;;;;;5055953;28;20528;-69
2022/01/17 06:04:20;;;;;;;0.40;0.40;;;3.80;95.10;;;;;;5056074;28;20906;-69
2022/01/17 06:06:46;;;;;;;0.30;0.30;;;3.80;95.20;;;;;;5055564;28;20252;-69
2022/01/17 06:09:12;;;;;;;0.30;0.30;;;3.60;95.30;;;;;;5055841;28;20262;-68
2022/01/17 06:11:38;;;;;;;0.30;0.30;;;3.60;95.60;;;;;;5055787;28;20406;-69
2022/01/17 06:14:04;;;;;;;0.30;0.30;;;3.70;95.70;;;;;;5055822;28;20662;-69
2022/01/17 06:16:30;;;;;;;0.40;0.40;;;3.70;95.70;;;;;;5055584;28;20202;-69
2022/01/17 06:18:56;;;;;;;0.40;0.40;;;3.70;95.70;;;;;;5054465;28;20208;-68
2022/01/17 06:21:22;;;;;;;0.38;0.38;;;3.70;95.80;;;;;;5055657;28;20419;-69
2022/01/17 06:23:48;;;;;;;0.30;0.30;;;3.60;96.00;;;;;;5054098;28;20208;-68
2022/01/17 06:26:14;;;;;;;0.37;0.37;;;3.50;95.90;;;;;;5055362;28;20217;-69
2022/01/17 06:28:39;;;;;;;0.30;0.30;;;3.50;96.00;;;;;;5055365;28;20513;-69
2022/01/17 06:31:05;;;;;;;0.30;0.30;;;3.60;96.10;;;;;;5055503;28;20247;-68
2022/01/17 06:33:31;;;;;;;0.30;0.30;;;3.70;96.00;;;;;;5055597;28;20178;-68
2022/01/17 06:35:56;;;;;;;0.30;0.30;;;3.70;95.80;;;;;;5055231;28;20184;-69
2022/01/17 06:38:22;;;;;;;0.30;0.30;;;3.80;95.90;;;;;;5055221;28;20283;-69
2022/01/17 06:40:48;;;;;;;0.30;0.30;;;3.80;95.90;;;;;;5055406;28;20176;-68
2022/01/17 06:43:13;;;;;;;0.30;0.30;;;3.80;95.80;;;;;;5055141;28;20446;-68
2022/01/17 06:45:40;;;;;;;0.30;0.30;;;3.80;95.80;;;;;;5055046;28;20166;-69
2022/01/17 06:48:06;;;;;;;0.50;0.50;;;3.90;95.70;;;;;;5054933;28;20556;-69
2022/01/17 06:50:34;;;;;;;0.30;0.30;;;3.90;95.70;;;;;;5055150;28;20166;-69
2022/01/17 06:53:00;;;;;;;0.30;0.30;;;3.90;95.70;;;;;;5054998;28;20248;-69
2022/01/17 06:55:26;;;;;;;0.40;0.40;;;3.90;95.70;;;;;;5054817;28;20642;-69
2022/01/17 06:57:52;;;;;;;0.40;0.40;;;3.90;95.70;;;;;;5055036;28;20517;-69
2022/01/17 07:00:18;;;;;;;0.30;0.30;;;4.00;95.60;;;;;;5054667;28;20273;-69
2022/01/17 07:02:43;;;;;;;0.40;0.40;;;4.00;95.60;;;;;;5054841;28;20449;-69
2022/01/17 07:05:09;;;;;;;0.40;0.40;;;4.00;95.60;;;;;;5054906;28;20179;-69
2022/01/17 07:07:35;;;;;;;0.40;0.40;;;4.00;95.50;;;;;;5053201;28;20209;-69
2022/01/17 07:10:00;;;;;;;0.30;0.30;;;4.00;95.50;;;;;;5054831;28;20196;-69
2022/01/17 07:12:26;;;;;;;0.30;0.30;;;4.00;95.40;;;;;;5054793;28;20223;-69
2022/01/17 07:14:52;;;;;;;0.30;0.30;;;4.10;95.30;;;;;;5054750;28;20187;-69
2022/01/17 07:17:18;;;;;;;0.30;0.30;;;4.10;95.30;;;;;;5054429;28;20200;-69
2022/01/17 07:19:45;;;;;;;0.30;0.30;;;4.10;95.30;;;;;;5054363;28;20173;-69
2022/01/17 07:22:11;;;;;;;0.30;0.30;;;4.10;95.40;;;;;;5054528;28;20214;-69
2022/01/17 07:24:37;;;;;;;0.38;0.38;;;4.00;95.50;;;;;;5054396;28;20180;-69
2022/01/17 07:27:03;;;;;;;0.30;0.30;;;4.00;95.60;;;;;;5054119;28;20188;-69
2022/01/17 07:29:29;;;;;;;0.30;0.30;;;4.00;95.70;;;;;;5054237;28;20207;-69
2022/01/17 07:31:55;;;;;;;0.40;0.40;;;3.90;95.70;;;;;;5054264;28;20195;-69
2022/01/17 07:34:22;;;;;;;0.30;0.30;;;3.80;96.00;;;;;;5054346;28;20175;-69
2022/01/17 07:36:48;;;;;;;0.30;0.30;;;3.80;96.30;;;;;;5053916;28;20176;-69
2022/01/17 07:39:13;;;;;;;0.30;0.30;;;3.90;96.40;;;;;;5054394;28;20593;-69
2022/01/17 07:41:39;;;;;;;0.30;0.30;;;4.00;96.20;;;;;;5054111;28;20318;-69
2022/01/17 07:44:07;;;;;;;0.30;0.30;;;4.00;96.20;;;;;;5054151;28;20239;-69
2022/01/17 07:49:11;;;;;;;0.40;0.40;;;4.20;96.00;;;;;;5053695;28;20338;-69
2022/01/17 07:51:44;;;;;;;0.40;0.40;;;4.20;95.80;;;;;;5052675;28;20627;-69
2022/01/17 07:54:14;;;;;;;0.30;0.30;;;4.20;95.60;;;;;;5053946;28;20180;-69
2022/01/17 07:56:41;;;;;;;0.30;0.30;;;4.20;95.60;;;;;;5053520;28;20177;-69
2022/01/17 07:59:07;;;;;;;0.30;0.30;;;4.20;95.70;;;;;;5053655;28;20263;-69
2022/01/17 08:01:33;;;;;;;0.30;0.30;;;4.20;95.80;;;;;;5052624;28;20180;-69
2022/01/17 08:04:00;;;;;;;0.40;0.40;;;4.30;95.90;;;;;;5053566;28;20209;-69
2022/01/17 08:06:26;;;;;;;0.30;0.30;;;4.40;95.70;;;;;;5053971;28;20612;-69
2022/01/17 08:08:51;;;;;;;0.30;0.30;;;4.40;95.50;;;;;;5053507;28;20208;-69
2022/01/17 08:11:18;;;;;;;0.50;0.50;;;4.50;95.40;;;;;;5053806;28;20163;-69
2022/01/17 08:13:43;;;;;;;0.30;0.30;;;4.60;95.40;;;;;;5053674;28;20241;-69
2022/01/17 08:16:09;;;;;;;0.60;0.60;;;4.60;95.40;;;;;;5053306;28;20267;-69
2022/01/17 08:18:35;;;;;;;0.30;0.30;;;4.70;95.40;;;;;;5053373;28;20431;-68
2022/01/17 08:21:03;;;;;;;0.40;0.40;;;4.70;95.40;;;;;;5053659;28;20162;-69
2022/01/17 08:23:29;;;;;;;0.30;0.30;;;4.60;95.50;;;;;;5053482;28;20616;-69
2022/01/17 08:25:55;;;;;;;0.30;0.30;;;4.60;95.80;;;;;;5053339;28;20170;-69
2022/01/17 08:28:20;;;;;;;0.30;0.30;;;4.70;95.80;;;;;;5053509;28;20559;-69
2022/01/17 08:30:46;;;;;;;0.30;0.30;;;4.80;95.80;;;;;;5053355;28;20173;-68
2022/01/17 08:33:11;;;;;;;0.30;0.30;;;4.80;95.80;;;;;;5052133;28;20520;-69
2022/01/17 08:35:37;;;;;;;0.30;0.30;;;5.00;95.80;;;;;;5053193;28;20173;-69
2022/01/17 08:38:03;;;;;;;0.40;0.40;;;5.00;95.60;;;;;;5053549;28;20717;-69
2022/01/17 08:40:29;;;;;;;0.30;0.30;;;5.20;95.40;;;;;;5053340;28;20177;-69
2022/01/17 08:42:55;;;;;;;2.00;1.90;;;5.10;95.10;;;;;;5055559;28;20659;-69
2022/01/17 08:45:23;;;;;;;0.70;0.70;;;5.20;95.00;;;;;;5057302;28;20169;-69
2022/01/17 08:47:51;;;;;;;0.40;0.40;;;5.20;95.00;;;;;;5057269;28;20220;-69
2022/01/17 08:50:21;;;;;;;2.25;2.15;;;5.20;95.00;;;;;;5057363;28;20158;-69
2022/01/17 08:52:47;;;;;;;0.40;0.40;;;5.20;95.10;;;;;;5057544;28;20170;-69
2022/01/17 08:55:15;;;;;;;0.40;0.40;;;5.20;95.10;;;;;;5057429;28;20174;-69
2022/01/17 08:57:41;;;;;;;0.40;0.40;;;5.20;95.00;;;;;;5056842;28;20209;-69
2022/01/17 09:00:11;;;;;;;0.30;0.30;;;5.20;95.20;;;;;;5057035;28;20211;-69
2022/01/17 09:02:37;;;;;;;0.40;0.40;;;5.20;95.30;;;;;;5057058;28;20532;-69
2022/01/17 09:05:03;;;;;;;0.40;0.40;;;5.20;95.30;;;;;;5057290;28;20166;-69
2022/01/17 09:07:28;;;;;;;0.40;0.40;;;5.20;95.40;;;;;;5056790;28;20436;-69
2022/01/17 09:09:54;;;;;;;0.30;0.30;;;5.20;95.50;;;;;;5056890;28;20170;-69
2022/01/17 09:12:20;;;;;;;0.40;0.40;;;5.20;95.60;;;;;;5057106;28;20249;-69
2022/01/17 09:14:45;;;;;;;0.30;0.30;;;5.20;95.60;;;;;;5057144;28;20174;-69
2022/01/17 09:17:12;;;;;;;0.40;0.40;;;5.30;95.70;;;;;;5056478;28;20240;-69
2022/01/17 09:19:40;;;;;;;0.40;0.40;;;5.20;95.70;;;;;;5056898;28;20261;-69
2022/01/17 09:22:07;;;;;;;0.30;0.30;;;5.20;95.80;;;;;;5056753;28;20213;-69
2022/01/17 09:24:38;;;;;;;0.30;0.30;;;5.30;95.80;;;;;;5056862;28;20162;-69
2022/01/17 09:27:05;;;;;;;1.15;1.15;;;5.20;95.70;;;;;;5056433;28;20505;-69
2022/01/17 09:29:32;;;;;;;0.40;0.40;;;5.10;95.80;;;;;;5056526;28;20177;-69
2022/01/17 09:31:59;;;;;;;0.30;0.30;;;5.00;96.10;;;;;;5056626;28;20212;-69
2022/01/17 09:34:25;;;;;;;0.40;0.40;;;5.00;96.60;;;;;;5056788;28;20517;-69
2022/01/17 09:36:52;;;;;;;0.30;0.30;;;5.00;96.90;;;;;;5056247;28;20173;-69
2022/01/17 09:39:18;;;;;;;0.40;0.40;;;4.90;97.10;;;;;;5056347;28;20162;-69
2022/01/17 09:41:44;;;;;;;0.40;0.40;;;5.00;97.20;;;;;;5056313;28;20170;-69
2022/01/17 09:44:10;;;;;;;0.30;0.30;;;5.10;97.20;;;;;;5056374;28;20279;-69
2022/01/17 09:46:41;;;;;;;0.40;0.40;;;5.20;96.90;;;;;;5056241;28;20171;-69
2022/01/17 09:54:25;;;;;;;1.63;1.52;;;5.40;96.80;;;;;;5056319;28;20203;-69
2022/01/17 09:56:52;;;;;;;0.40;0.40;;;5.30;96.80;;;;;;5056042;28;20178;-69
2022/01/17 09:59:18;;;;;;;0.40;0.40;;;5.40;96.80;;;;;;5055778;28;20190;-69
2022/01/17 10:01:44;;;;;;;0.95;0.95;;;5.50;96.60;;;;;;5056105;28;20174;-69
2022/01/17 10:04:10;;;;;;;0.30;0.30;;;5.50;96.40;;;;;;5056050;28;20560;-69
2022/01/17 10:06:36;;;;;;;0.37;0.37;;;5.40;96.60;;;;;;5055602;28;20166;-69
2022/01/17 10:09:21;;;;;;;0.40;0.40;;;5.30;97.10;;;;;;5056003;28;20197;-69
2022/01/17 10:12:08;;;;;;;0.38;0.38;;;5.40;97.30;;;;;;5056115;28;20674;-69
2022/01/17 10:14:46;;;;;;;0.40;0.40;;;5.40;97.20;;;;;;5055883;28;20182;-69
2022/01/17 10:17:17;;;;;;;0.38;0.38;;;5.50;96.80;;;;;;5055490;28;20190;-69
2022/01/17 10:19:43;;;;;;;0.40;0.40;;;5.60;96.80;;;;;;5055731;28;20647;-69
2022/01/17 10:22:16;;;;;;;0.40;0.40;;;5.70;96.50;;;;;;5055680;28;20182;-69
2022/01/17 10:24:52;;;;;;;0.40;0.40;;;5.70;96.50;;;;;;5055736;28;20197;-69
2022/01/17 10:35:30;;;;;;;0.40;0.40;;;5.70;96.30;;;;;;5055533;28;20596;-69
2022/01/17 10:37:59;;;;;;;0.40;0.40;;;5.70;96.30;;;;;;5055250;28;20597;-69
2022/01/17 10:40:27;;;;;;;0.30;0.30;;;5.80;96.50;;;;;;5055486;28;20238;-69
2022/01/17 10:42:54;;;;;;;0.30;0.30;;;6.00;96.40;;;;;;5055375;28;20284;-69
2022/01/17 10:45:29;;;;;;;0.40;0.40;;;6.00;96.00;;;;;;5055320;28;20170;-69
2022/01/17 10:47:57;;;;;;;0.40;0.40;;;5.90;95.80;;;;;;5055163;28;20185;-69
2022/01/17 10:50:36;;;;;;;0.30;0.30;;;6.10;96.00;;;;;;5055087;28;20197;-69
2022/01/17 10:53:07;;;;;;;0.40;0.40;;;6.10;95.60;;;;;;5055143;28;20189;-69
2022/01/17 10:55:37;;;;;;;1.08;1.08;;;6.40;95.50;;;;;;5054939;28;20166;-69
2022/01/17 10:58:09;;;;;;;0.30;0.30;;;6.70;95.00;;;;;;5054838;28;20194;-69
2022/01/17 11:00:48;;;;;;;0.40;0.40;;;7.10;94.20;;;;;;5054702;28;20182;-69
2022/01/17 11:03:19;;;;;;;0.32;0.32;;;7.20;93.60;;;;;;5055024;28;20197;-69
2022/01/17 11:05:47;;;;;;;0.60;0.60;;;6.90;93.50;;;;;;5054274;28;20223;-69
2022/01/17 11:08:16;;;;;;;0.30;0.30;;;6.40;94.00;;;;;;5054794;28;20198;-69
2022/01/17 11:10:53;;;;;;;0.30;0.30;;;6.20;94.60;;;;;;5054692;28;20173;-68
2022/01/17 11:13:20;;;;;;;0.32;0.32;;;5.90;95.10;;;;;;5054645;28;20181;-67
2022/01/17 11:15:52;;;;;;;0.30;0.30;;;5.90;95.80;;;;;;5054596;28;20205;-69
2022/01/17 11:18:22;;;;;;;0.40;0.40;;;6.30;95.60;;;;;;5054628;28;20281;-68
2022/01/17 11:20:50;;;;;;;0.35;0.35;;;6.40;95.00;;;;;;5054738;28;20529;-69
2022/01/17 11:23:17;;;;;;;0.40;0.40;;;6.30;94.90;;;;;;5054528;28;20221;-69
2022/01/17 11:25:45;;;;;;;0.40;0.40;;;6.60;95.00;;;;;;5054678;28;20173;-69
2022/01/17 11:28:14;;;;;;;0.40;0.40;;;6.40;94.60;;;;;;5054403;28;20190;-69
2022/01/17 11:30:40;;;;;;;0.30;0.30;;;6.40;94.80;;;;;;5054356;28;20163;-69
2022/01/17 11:33:11;;;;;;;0.38;0.38;;;6.20;94.80;;;;;;5054448;28;20186;-68
2022/01/17 11:35:44;;;;;;;0.40;0.40;;;6.30;95.00;;;;;;5054205;28;20169;-68
2022/01/17 11:38:13;;;;;;;0.40;0.40;;;6.10;95.10;;;;;;5054170;28;20190;-68
2022/01/17 11:40:41;;;;;;;0.40;0.40;;;6.10;95.30;;;;;;5054341;28;20241;-69
2022/01/17 11:43:20;;;;;;;0.40;0.40;;;6.20;95.30;;;;;;5054349;28;20301;-68
2022/01/17 11:45:47;;;;;;;0.43;0.43;;;6.30;95.30;;;;;;5053958;28;20665;-69
2022/01/17 11:48:22;;;;;;;0.40;0.40;;;6.20;95.10;;;;;;5054083;28;20196;-68
2022/01/17 11:50:50;;;;;;;1.27;1.27;;;6.30;95.20;;;;;;5054072;28;20162;-68
2022/01/17 11:53:15;;;;;;;0.30;0.30;;;6.30;94.90;;;;;;5053936;28;20178;-68
2022/01/17 11:55:44;;;;;;;0.37;0.37;;;6.70;94.90;;;;;;5053764;28;20181;-69
2022/01/17 11:58:24;;;;;;;0.40;0.40;;;6.60;94.30;;;;;;5053858;28;20209;-69
2022/01/17 12:01:16;;;;;;;0.35;0.35;;;6.50;94.30;;;;;;5053682;28;20178;-69
2022/01/17 12:03:49;;;;;;;0.95;0.95;;;6.40;94.70;;;;;;5052461;28;20259;-68
2022/01/17 12:06:21;;;;;;;0.40;0.40;;;6.40;95.20;;;;;;5052253;28;20253;-69
2022/01/17 12:08:49;;;;;;;0.40;0.40;;;6.50;94.70;;;;;;5053608;28;20186;-68
2022/01/17 12:11:30;;;;;;;0.40;0.40;;;6.40;94.80;;;;;;5053807;28;20224;-68
2022/01/17 12:14:00;;;;;;;0.32;0.32;;;6.50;94.70;;;;;;5053577;28;20673;-68
2022/01/17 12:16:29;;;;;;;0.70;0.70;;;6.80;94.40;;;;;;5052976;28;20166;-69
2022/01/17 12:18:58;;;;;;;0.38;0.38;;;7.00;93.90;;;;;;5053334;28;20186;-68
2022/01/17 12:21:40;;;;;;;0.50;0.50;;;7.20;93.50;;;;;;5053471;28;20216;-69
2022/01/17 12:24:15;;;;;;;0.40;0.40;;;7.20;93.10;;;;;;5053871;28;20273;-69
2022/01/17 12:26:42;;;;;;;1.30;1.25;;;7.20;93.00;;;;;;5053122;28;20627;-69
2022/01/17 12:29:08;;;;;;;0.80;0.80;;;7.40;93.20;;;;;;5053297;28;20174;-69
2022/01/17 12:31:47;;;;;;;0.30;0.30;;;7.60;92.70;;;;;;5053352;28;20513;-69
2022/01/17 12:34:23;;;;;;;0.40;0.40;;;7.40;92.70;;;;;;5053554;28;20178;-68
2022/01/17 12:36:50;;;;;;;0.40;0.40;;;7.50;92.60;;;;;;5053082;28;20171;-69
2022/01/17 12:39:19;;;;;;;0.30;0.30;;;7.50;92.60;;;;;;5053470;28;20171;-69
2022/01/17 12:41:47;;;;;;;0.40;0.40;;;7.50;92.70;;;;;;5053180;28;20166;-69
2022/01/17 12:44:22;;;;;;;0.30;0.30;;;7.50;92.60;;;;;;5053307;28;20288;-69
2022/01/17 12:46:52;;;;;;;0.40;0.40;;;7.40;92.70;;;;;;5052949;28;20168;-69
2022/01/17 12:49:19;;;;;;;0.60;0.60;;;7.30;92.70;;;;;;5053230;28;20158;-68
2022/01/17 12:51:52;;;;;;;0.70;0.70;;;7.00;93.00;;;;;;5053211;28;20166;-68
2022/01/17 12:54:21;;;;;;;0.40;0.40;;;6.60;93.70;;;;;;5053405;28;20182;-68
2022/01/17 12:56:49;;;;;;;0.68;0.68;;;6.70;94.40;;;;;;5051617;28;20731;-69
2022/01/17 12:59:17;;;;;;;0.98;0.98;;;6.70;94.10;;;;;;5052942;28;20277;-69
2022/01/17 13:01:47;;;;;;;0.40;0.40;;;6.90;93.80;;;;;;5053103;28;20175;-68
2022/01/17 13:04:16;;;;;;;0.40;0.40;;;6.90;93.50;;;;;;5053446;28;20309;-69
2022/01/17 13:06:43;;;;;;;0.40;0.40;;;7.10;93.50;;;;;;5052987;28;20228;-69
2022/01/17 13:09:14;;;;;;;0.30;0.30;;;7.20;93.30;;;;;;5051748;28;20190;-69
2022/01/17 13:11:43;;;;;;;0.60;0.60;;;7.30;93.00;;;;;;5053127;28;20162;-69
2022/01/17 13:14:12;;;;;;;0.38;0.38;;;7.30;92.90;;;;;;5052933;28;20201;-68
2022/01/17 13:16:41;;;;;;;0.40;0.40;;;7.40;92.80;;;;;;5052888;28;20210;-69
2022/01/17 13:19:11;;;;;;;0.40;0.40;;;7.30;92.80;;;;;;5052907;28;20214;-69
2022/01/17 13:21:39;;;;;;;0.40;0.40;;;7.30;92.90;;;;;;5053003;28;20174;-68
2022/01/17 13:27:09;;;;;;;0.30;0.30;;;7.20;92.80;;;;;;5053008;28;20651;-69
2022/01/17 13:29:40;;;;;;;0.40;0.40;;;7.20;92.90;;;;;;5055936;28;20156;-69
2022/01/17 13:32:08;;;;;;;0.40;0.40;;;7.20;93.00;;;;;;5056712;28;20163;-68
2022/01/17 13:34:35;;;;;;;0.40;0.40;;;7.00;93.10;;;;;;5056632;28;20673;-69
2022/01/17 13:37:03;;;;;;;0.30;0.30;;;7.10;93.20;;;;;;5056157;28;20248;-69
2022/01/17 13:39:29;;;;;;;1.10;1.10;;;7.20;93.20;;;;;;5056351;28;20178;-68
2022/01/17 13:42:00;;;;;;;0.40;0.40;;;7.30;92.90;;;;;;5056399;28;20189;-69
2022/01/17 13:44:35;;;;;;;0.40;0.40;;;7.30;92.50;;;;;;5056492;28;20455;-68